Terminal Aerodrome Forecast
Issued by NWS Brownsville, TX

Home | Current Version | Previous Version | Text Only | Print | Product List | Glossary On
Versions: 1 2 3 4 5 6 7 8 9 10 11 12 13 14 15 16 17 18 19 20 21 22 23
000
FTUS44 KBRO 011743
TAFMFE
TAF
KMFE 011743Z 0118/0218 31008KT P6SM OVC007
     FM012100 35007KT P6SM OVC015
     FM020300 33007KT P6SM OVC007
     FM020900 33007KT 3SM -DZ BR OVC005
      TEMPO 0210/0214 1SM -DZ BR OVC003
     FM021400 32008KT 5SM BR OVC005=

USA.gov is the U.S. government's official web portal to all federal, state and local government web resources and services.